sensor_id;sensor_type;location;lat;lon;timestamp;P1;durP1;ratioP1;P2;durP2;ratioP2
22334;SDS011;11335;43.848;25.958;2022-11-20T00:01:44;64.55;;;38.58;;
22334;SDS011;11335;43.848;25.958;2022-11-20T00:04:30;60.72;;;38.58;;
22334;SDS011;11335;43.848;25.958;2022-11-20T00:07:15;59.60;;;38.90;;
22334;SDS011;11335;43.848;25.958;2022-11-20T00:10:01;60.97;;;38.63;;
22334;SDS011;11335;43.848;25.958;2022-11-20T00:12:47;66.85;;;39.78;;
22334;SDS011;11335;43.848;25.958;2022-11-20T00:15:32;62.78;;;40.60;;
22334;SDS011;11335;43.848;25.958;2022-11-20T00:18:18;69.38;;;40.97;;
22334;SDS011;11335;43.848;25.958;2022-11-20T00:21:05;64.45;;;39.85;;
22334;SDS011;11335;43.848;25.958;2022-11-20T00:23:51;63.75;;;39.60;;
22334;SDS011;11335;43.848;25.958;2022-11-20T00:26:37;64.28;;;40.33;;
22334;SDS011;11335;43.848;25.958;2022-11-20T00:29:23;62.72;;;39.40;;
22334;SDS011;11335;43.848;25.958;2022-11-20T00:32:08;64.07;;;39.83;;
22334;SDS011;11335;43.848;25.958;2022-11-20T00:34:54;60.83;;;40.10;;
22334;SDS011;11335;43.848;25.958;2022-11-20T00:37:39;63.53;;;39.83;;
22334;SDS011;11335;43.848;25.958;2022-11-20T00:40:25;63.35;;;40.28;;
22334;SDS011;11335;43.848;25.958;2022-11-20T00:43:10;63.33;;;39.92;;
22334;SDS011;11335;43.848;25.958;2022-11-20T00:45:57;65.78;;;40.00;;
22334;SDS011;11335;43.848;25.958;2022-11-20T00:48:43;60.40;;;37.45;;
22334;SDS011;11335;43.848;25.958;2022-11-20T00:51:29;60.90;;;37.83;;
22334;SDS011;11335;43.848;25.958;2022-11-20T00:54:14;59.90;;;37.28;;
22334;SDS011;11335;43.848;25.958;2022-11-20T00:57:00;58.00;;;36.53;;
22334;SDS011;11335;43.848;25.958;2022-11-20T00:59:45;57.38;;;35.78;;
22334;SDS011;11335;43.848;25.958;2022-11-20T01:02:31;56.72;;;36.08;;
22334;SDS011;11335;43.848;25.958;2022-11-20T01:05:16;58.95;;;36.70;;
22334;SDS011;11335;43.848;25.958;2022-11-20T01:08:02;57.13;;;35.42;;
22334;SDS011;11335;43.848;25.958;2022-11-20T01:10:48;57.78;;;36.72;;
22334;SDS011;11335;43.848;25.958;2022-11-20T01:13:33;61.92;;;36.25;;
22334;SDS011;11335;43.848;25.958;2022-11-20T01:16:23;60.28;;;35.63;;
22334;SDS011;11335;43.848;25.958;2022-11-20T01:19:11;61.30;;;36.13;;
22334;SDS011;11335;43.848;25.958;2022-11-20T01:21:56;63.53;;;37.72;;
22334;SDS011;11335;43.848;25.958;2022-11-20T01:24:42;58.05;;;35.30;;
22334;SDS011;11335;43.848;25.958;2022-11-20T01:27:28;61.97;;;36.80;;
22334;SDS011;11335;43.848;25.958;2022-11-20T01:30:14;72.68;;;38.72;;
22334;SDS011;11335;43.848;25.958;2022-11-20T01:32:59;64.82;;;36.55;;
22334;SDS011;11335;43.848;25.958;2022-11-20T01:35:45;59.95;;;35.97;;
22334;SDS011;11335;43.848;25.958;2022-11-20T01:38:30;58.78;;;34.97;;
22334;SDS011;11335;43.848;25.958;2022-11-20T01:41:16;54.15;;;33.72;;
22334;SDS011;11335;43.848;25.958;2022-11-20T01:44:21;60.78;;;36.45;;
22334;SDS011;11335;43.848;25.958;2022-11-20T01:47:07;62.40;;;35.03;;
22334;SDS011;11335;43.848;25.958;2022-11-20T01:49:56;58.78;;;33.95;;
22334;SDS011;11335;43.848;25.958;2022-11-20T01:52:48;65.00;;;36.80;;
22334;SDS011;11335;43.848;25.958;2022-11-20T01:55:37;57.50;;;34.03;;
22334;SDS011;11335;43.848;25.958;2022-11-20T01:58:32;68.05;;;37.72;;
22334;SDS011;11335;43.848;25.958;2022-11-20T02:01:20;62.97;;;36.25;;
22334;SDS011;11335;43.848;25.958;2022-11-20T02:04:06;67.85;;;36.70;;
22334;SDS011;11335;43.848;25.958;2022-11-20T02:07:02;63.97;;;35.90;;
22334;SDS011;11335;43.848;25.958;2022-11-20T02:09:50;64.82;;;32.90;;
22334;SDS011;11335;43.848;25.958;2022-11-20T02:12:36;53.53;;;31.20;;
22334;SDS011;11335;43.848;25.958;2022-11-20T02:15:40;54.22;;;30.25;;
22334;SDS011;11335;43.848;25.958;2022-11-20T02:18:26;55.13;;;29.20;;
22334;SDS011;11335;43.848;25.958;2022-11-20T02:24:16;50.85;;;28.98;;
22334;SDS011;11335;43.848;25.958;2022-11-20T02:27:05;54.30;;;29.35;;
22334;SDS011;11335;43.848;25.958;2022-11-20T02:29:58;51.33;;;29.48;;
22334;SDS011;11335;43.848;25.958;2022-11-20T02:32:44;59.40;;;31.92;;
22334;SDS011;11335;43.848;25.958;2022-11-20T02:38:15;60.33;;;31.30;;
22334;SDS011;11335;43.848;25.958;2022-11-20T02:41:01;46.70;;;27.90;;
22334;SDS011;11335;43.848;25.958;2022-11-20T02:43:47;54.15;;;28.73;;
22334;SDS011;11335;43.848;25.958;2022-11-20T02:46:32;52.15;;;29.48;;
22334;SDS011;11335;43.848;25.958;2022-11-20T02:49:18;53.45;;;29.33;;
22334;SDS011;11335;43.848;25.958;2022-11-20T02:52:04;54.00;;;30.20;;
22334;SDS011;11335;43.848;25.958;2022-11-20T02:54:50;51.90;;;28.92;;
22334;SDS011;11335;43.848;25.958;2022-11-20T02:57:35;47.83;;;28.70;;
22334;SDS011;11335;43.848;25.958;2022-11-20T03:00:21;52.90;;;29.55;;
22334;SDS011;11335;43.848;25.958;2022-11-20T03:03:06;55.08;;;29.67;;
22334;SDS011;11335;43.848;25.958;2022-11-20T03:05:52;61.25;;;30.08;;
22334;SDS011;11335;43.848;25.958;2022-11-20T03:08:37;49.70;;;28.48;;
22334;SDS011;11335;43.848;25.958;2022-11-20T03:11:23;54.60;;;29.58;;
22334;SDS011;11335;43.848;25.958;2022-11-20T03:14:09;52.22;;;28.58;;
22334;SDS011;11335;43.848;25.958;2022-11-20T03:16:55;50.97;;;29.20;;
22334;SDS011;11335;43.848;25.958;2022-11-20T03:19:40;59.15;;;31.27;;
22334;SDS011;11335;43.848;25.958;2022-11-20T03:22:28;66.95;;;33.58;;
22334;SDS011;11335;43.848;25.958;2022-11-20T03:25:13;63.13;;;32.53;;
22334;SDS011;11335;43.848;25.958;2022-11-20T03:27:59;66.20;;;31.60;;
22334;SDS011;11335;43.848;25.958;2022-11-20T03:30:44;60.15;;;32.42;;
22334;SDS011;11335;43.848;25.958;2022-11-20T03:33:30;63.75;;;32.78;;
22334;SDS011;11335;43.848;25.958;2022-11-20T03:36:16;55.50;;;32.08;;
22334;SDS011;11335;43.848;25.958;2022-11-20T03:39:02;56.67;;;32.10;;
22334;SDS011;11335;43.848;25.958;2022-11-20T03:41:47;63.05;;;33.10;;
22334;SDS011;11335;43.848;25.958;2022-11-20T03:44:33;64.53;;;33.40;;
22334;SDS011;11335;43.848;25.958;2022-11-20T03:47:19;62.20;;;34.20;;
22334;SDS011;11335;43.848;25.958;2022-11-20T03:50:04;60.20;;;32.13;;
22334;SDS011;11335;43.848;25.958;2022-11-20T03:52:50;62.78;;;33.53;;
22334;SDS011;11335;43.848;25.958;2022-11-20T03:55:36;60.00;;;32.50;;
22334;SDS011;11335;43.848;25.958;2022-11-20T03:58:21;65.45;;;32.67;;
22334;SDS011;11335;43.848;25.958;2022-11-20T04:01:07;54.90;;;32.42;;
22334;SDS011;11335;43.848;25.958;2022-11-20T04:03:54;68.22;;;34.10;;
22334;SDS011;11335;43.848;25.958;2022-11-20T04:06:40;67.07;;;34.28;;
22334;SDS011;11335;43.848;25.958;2022-11-20T04:09:26;66.32;;;33.65;;
22334;SDS011;11335;43.848;25.958;2022-11-20T04:12:11;63.33;;;35.35;;
22334;SDS011;11335;43.848;25.958;2022-11-20T04:14:57;63.50;;;33.95;;
22334;SDS011;11335;43.848;25.958;2022-11-20T04:17:42;72.80;;;37.17;;
22334;SDS011;11335;43.848;25.958;2022-11-20T04:20:28;65.47;;;36.42;;
22334;SDS011;11335;43.848;25.958;2022-11-20T04:23:14;69.68;;;37.85;;
22334;SDS011;11335;43.848;25.958;2022-11-20T04:26:03;70.03;;;37.78;;
22334;SDS011;11335;43.848;25.958;2022-11-20T04:28:49;68.90;;;37.17;;
22334;SDS011;11335;43.848;25.958;2022-11-20T04:31:35;70.35;;;38.15;;
22334;SDS011;11335;43.848;25.958;2022-11-20T04:34:20;73.20;;;38.42;;
22334;SDS011;11335;43.848;25.958;2022-11-20T04:37:06;73.90;;;38.17;;
22334;SDS011;11335;43.848;25.958;2022-11-20T04:39:51;72.28;;;38.33;;
22334;SDS011;11335;43.848;25.958;2022-11-20T04:42:37;69.80;;;37.38;;
22334;SDS011;11335;43.848;25.958;2022-11-20T04:45:22;77.93;;;39.67;;
22334;SDS011;11335;43.848;25.958;2022-11-20T04:48:08;81.05;;;39.30;;
22334;SDS011;11335;43.848;25.958;2022-11-20T04:50:54;78.32;;;40.58;;
22334;SDS011;11335;43.848;25.958;2022-11-20T04:53:39;78.47;;;39.63;;
22334;SDS011;11335;43.848;25.958;2022-11-20T04:56:25;74.93;;;38.38;;
22334;SDS011;11335;43.848;25.958;2022-11-20T04:59:11;72.85;;;37.03;;
22334;SDS011;11335;43.848;25.958;2022-11-20T05:01:56;64.68;;;34.97;;
22334;SDS011;11335;43.848;25.958;2022-11-20T05:04:42;63.28;;;34.83;;
22334;SDS011;11335;43.848;25.958;2022-11-20T05:07:27;66.60;;;35.70;;
22334;SDS011;11335;43.848;25.958;2022-11-20T05:10:13;81.35;;;38.60;;
22334;SDS011;11335;43.848;25.958;2022-11-20T05:12:58;75.63;;;38.45;;
22334;SDS011;11335;43.848;25.958;2022-11-20T05:15:44;72.82;;;38.83;;
22334;SDS011;11335;43.848;25.958;2022-11-20T05:18:29;74.07;;;37.92;;
22334;SDS011;11335;43.848;25.958;2022-11-20T05:21:15;72.90;;;38.78;;
22334;SDS011;11335;43.848;25.958;2022-11-20T05:24:01;70.20;;;36.03;;
22334;SDS011;11335;43.848;25.958;2022-11-20T05:26:47;71.88;;;35.50;;
22334;SDS011;11335;43.848;25.958;2022-11-20T05:29:32;76.97;;;37.22;;
22334;SDS011;11335;43.848;25.958;2022-11-20T05:32:18;73.47;;;37.60;;
22334;SDS011;11335;43.848;25.958;2022-11-20T05:35:04;72.88;;;37.95;;
22334;SDS011;11335;43.848;25.958;2022-11-20T05:37:49;91.85;;;41.55;;
22334;SDS011;11335;43.848;25.958;2022-11-20T05:40:35;93.55;;;42.67;;
22334;SDS011;11335;43.848;25.958;2022-11-20T05:43:21;68.32;;;36.60;;
22334;SDS011;11335;43.848;25.958;2022-11-20T05:46:07;67.30;;;36.00;;
22334;SDS011;11335;43.848;25.958;2022-11-20T05:48:53;76.38;;;35.42;;
22334;SDS011;11335;43.848;25.958;2022-11-20T05:51:38;74.68;;;37.03;;
22334;SDS011;11335;43.848;25.958;2022-11-20T05:54:24;64.85;;;34.20;;
22334;SDS011;11335;43.848;25.958;2022-11-20T05:57:09;64.70;;;33.10;;
22334;SDS011;11335;43.848;25.958;2022-11-20T05:59:55;56.17;;;30.65;;
22334;SDS011;11335;43.848;25.958;2022-11-20T06:02:40;61.38;;;31.05;;
22334;SDS011;11335;43.848;25.958;2022-11-20T06:05:26;58.85;;;29.98;;
22334;SDS011;11335;43.848;25.958;2022-11-20T06:08:12;57.58;;;31.00;;
22334;SDS011;11335;43.848;25.958;2022-11-20T06:10:58;58.22;;;30.48;;
22334;SDS011;11335;43.848;25.958;2022-11-20T06:13:44;61.42;;;31.33;;
22334;SDS011;11335;43.848;25.958;2022-11-20T06:16:30;68.60;;;30.67;;
22334;SDS011;11335;43.848;25.958;2022-11-20T06:19:16;62.75;;;30.88;;
22334;SDS011;11335;43.848;25.958;2022-11-20T06:22:01;51.53;;;28.15;;
22334;SDS011;11335;43.848;25.958;2022-11-20T06:24:47;55.75;;;28.35;;
22334;SDS011;11335;43.848;25.958;2022-11-20T06:27:33;59.05;;;27.13;;
22334;SDS011;11335;43.848;25.958;2022-11-20T06:30:18;49.70;;;26.73;;
22334;SDS011;11335;43.848;25.958;2022-11-20T06:33:04;51.03;;;26.00;;
22334;SDS011;11335;43.848;25.958;2022-11-20T06:35:49;50.67;;;26.90;;
22334;SDS011;11335;43.848;25.958;2022-11-20T06:38:35;58.03;;;27.05;;
22334;SDS011;11335;43.848;25.958;2022-11-20T06:41:21;50.03;;;25.45;;
22334;SDS011;11335;43.848;25.958;2022-11-20T06:44:07;50.60;;;25.00;;
22334;SDS011;11335;43.848;25.958;2022-11-20T06:46:52;51.08;;;25.23;;
22334;SDS011;11335;43.848;25.958;2022-11-20T06:49:38;48.33;;;24.88;;
22334;SDS011;11335;43.848;25.958;2022-11-20T06:52:24;41.95;;;23.17;;
22334;SDS011;11335;43.848;25.958;2022-11-20T06:55:09;44.67;;;23.40;;
22334;SDS011;11335;43.848;25.958;2022-11-20T06:57:55;42.05;;;23.23;;
22334;SDS011;11335;43.848;25.958;2022-11-20T07:00:40;45.03;;;21.60;;
22334;SDS011;11335;43.848;25.958;2022-11-20T07:03:26;46.33;;;22.40;;
22334;SDS011;11335;43.848;25.958;2022-11-20T07:06:11;40.05;;;21.33;;
22334;SDS011;11335;43.848;25.958;2022-11-20T07:08:57;36.35;;;20.77;;
22334;SDS011;11335;43.848;25.958;2022-11-20T07:11:43;40.88;;;21.63;;
22334;SDS011;11335;43.848;25.958;2022-11-20T07:14:28;42.03;;;21.05;;
22334;SDS011;11335;43.848;25.958;2022-11-20T07:17:14;43.13;;;23.85;;
22334;SDS011;11335;43.848;25.958;2022-11-20T07:19:59;44.97;;;21.73;;
22334;SDS011;11335;43.848;25.958;2022-11-20T07:22:45;51.15;;;22.35;;
22334;SDS011;11335;43.848;25.958;2022-11-20T07:25:31;39.50;;;21.20;;
22334;SDS011;11335;43.848;25.958;2022-11-20T07:28:16;40.08;;;20.83;;
22334;SDS011;11335;43.848;25.958;2022-11-20T07:31:02;43.40;;;21.10;;
22334;SDS011;11335;43.848;25.958;2022-11-20T07:33:48;42.33;;;21.08;;
22334;SDS011;11335;43.848;25.958;2022-11-20T07:36:34;41.28;;;21.52;;
22334;SDS011;11335;43.848;25.958;2022-11-20T07:39:19;49.25;;;21.15;;
22334;SDS011;11335;43.848;25.958;2022-11-20T07:42:08;46.40;;;21.27;;
22334;SDS011;11335;43.848;25.958;2022-11-20T07:44:53;42.35;;;20.40;;
22334;SDS011;11335;43.848;25.958;2022-11-20T07:47:39;43.67;;;21.42;;
22334;SDS011;11335;43.848;25.958;2022-11-20T07:50:24;50.53;;;23.48;;
22334;SDS011;11335;43.848;25.958;2022-11-20T07:53:10;42.30;;;22.15;;
22334;SDS011;11335;43.848;25.958;2022-11-20T07:56:01;53.58;;;23.08;;
22334;SDS011;11335;43.848;25.958;2022-11-20T07:58:47;50.03;;;24.65;;
22334;SDS011;11335;43.848;25.958;2022-11-20T08:01:32;48.33;;;22.88;;
22334;SDS011;11335;43.848;25.958;2022-11-20T08:04:18;50.00;;;24.45;;
22334;SDS011;11335;43.848;25.958;2022-11-20T08:07:03;45.95;;;23.80;;
22334;SDS011;11335;43.848;25.958;2022-11-20T08:09:49;46.65;;;25.13;;
22334;SDS011;11335;43.848;25.958;2022-11-20T08:12:35;48.53;;;24.83;;
22334;SDS011;11335;43.848;25.958;2022-11-20T08:15:39;47.50;;;22.02;;
22334;SDS011;11335;43.848;25.958;2022-11-20T08:18:25;41.95;;;22.45;;
22334;SDS011;11335;43.848;25.958;2022-11-20T08:21:10;40.95;;;22.85;;
22334;SDS011;11335;43.848;25.958;2022-11-20T08:23:56;41.13;;;21.20;;
22334;SDS011;11335;43.848;25.958;2022-11-20T08:26:42;43.38;;;22.30;;
22334;SDS011;11335;43.848;25.958;2022-11-20T08:29:27;58.60;;;28.80;;
22334;SDS011;11335;43.848;25.958;2022-11-20T08:32:13;39.47;;;19.60;;
22334;SDS011;11335;43.848;25.958;2022-11-20T08:34:59;37.47;;;20.33;;
22334;SDS011;11335;43.848;25.958;2022-11-20T08:37:47;40.20;;;20.83;;
22334;SDS011;11335;43.848;25.958;2022-11-20T08:40:33;42.78;;;22.90;;
22334;SDS011;11335;43.848;25.958;2022-11-20T08:43:19;39.42;;;21.65;;
22334;SDS011;11335;43.848;25.958;2022-11-20T08:46:04;41.42;;;21.70;;
22334;SDS011;11335;43.848;25.958;2022-11-20T08:48:50;40.85;;;21.85;;
22334;SDS011;11335;43.848;25.958;2022-11-20T08:51:36;39.35;;;20.75;;
22334;SDS011;11335;43.848;25.958;2022-11-20T08:54:22;36.38;;;19.80;;
22334;SDS011;11335;43.848;25.958;2022-11-20T08:57:08;40.35;;;23.15;;
22334;SDS011;11335;43.848;25.958;2022-11-20T08:59:53;41.40;;;21.83;;
22334;SDS011;11335;43.848;25.958;2022-11-20T09:02:39;52.40;;;29.15;;
22334;SDS011;11335;43.848;25.958;2022-11-20T09:05:24;46.75;;;25.42;;
22334;SDS011;11335;43.848;25.958;2022-11-20T09:08:10;43.80;;;23.50;;
22334;SDS011;11335;43.848;25.958;2022-11-20T09:10:56;42.80;;;22.15;;
22334;SDS011;11335;43.848;25.958;2022-11-20T09:13:42;39.58;;;22.50;;
22334;SDS011;11335;43.848;25.958;2022-11-20T09:16:27;35.33;;;20.38;;
22334;SDS011;11335;43.848;25.958;2022-11-20T09:19:13;35.33;;;19.23;;
22334;SDS011;11335;43.848;25.958;2022-11-20T09:21:59;35.60;;;21.10;;
22334;SDS011;11335;43.848;25.958;2022-11-20T09:24:45;37.90;;;21.15;;
22334;SDS011;11335;43.848;25.958;2022-11-20T09:27:30;37.28;;;20.90;;
22334;SDS011;11335;43.848;25.958;2022-11-20T09:30:16;39.10;;;21.70;;
22334;SDS011;11335;43.848;25.958;2022-11-20T09:33:03;37.10;;;20.30;;
22334;SDS011;11335;43.848;25.958;2022-11-20T09:35:49;38.83;;;20.67;;
22334;SDS011;11335;43.848;25.958;2022-11-20T09:38:35;39.90;;;21.75;;
22334;SDS011;11335;43.848;25.958;2022-11-20T09:41:39;45.00;;;23.60;;
22334;SDS011;11335;43.848;25.958;2022-11-20T09:53:56;43.47;;;24.05;;
22334;SDS011;11335;43.848;25.958;2022-11-20T09:56:49;42.78;;;22.52;;
22334;SDS011;11335;43.848;25.958;2022-11-20T09:59:39;37.30;;;21.40;;
22334;SDS011;11335;43.848;25.958;2022-11-20T10:02:29;40.00;;;22.45;;
22334;SDS011;11335;43.848;25.958;2022-11-20T10:05:26;40.42;;;23.60;;
22334;SDS011;11335;43.848;25.958;2022-11-20T10:17:16;41.72;;;25.02;;
22334;SDS011;11335;43.848;25.958;2022-11-20T10:23:12;45.67;;;25.35;;
22334;SDS011;11335;43.848;25.958;2022-11-20T10:26:16;41.95;;;23.85;;
22334;SDS011;11335;43.848;25.958;2022-11-20T10:31:53;36.28;;;22.25;;
22334;SDS011;11335;43.848;25.958;2022-11-20T10:34:47;39.78;;;23.20;;
22334;SDS011;11335;43.848;25.958;2022-11-20T10:37:35;36.83;;;22.75;;
22334;SDS011;11335;43.848;25.958;2022-11-20T10:40:26;35.08;;;21.65;;
22334;SDS011;11335;43.848;25.958;2022-11-20T10:46:14;42.33;;;23.52;;
22334;SDS011;11335;43.848;25.958;2022-11-20T10:49:00;46.03;;;25.80;;
22334;SDS011;11335;43.848;25.958;2022-11-20T11:00:20;39.40;;;23.77;;
22334;SDS011;11335;43.848;25.958;2022-11-20T11:03:16;51.00;;;26.42;;
22334;SDS011;11335;43.848;25.958;2022-11-20T11:06:19;54.17;;;27.15;;
22334;SDS011;11335;43.848;25.958;2022-11-20T11:09:15;54.90;;;27.98;;
22334;SDS011;11335;43.848;25.958;2022-11-20T11:12:05;52.08;;;27.05;;
22334;SDS011;11335;43.848;25.958;2022-11-20T11:14:52;48.70;;;27.55;;
22334;SDS011;11335;43.848;25.958;2022-11-20T11:17:38;53.15;;;28.13;;
22334;SDS011;11335;43.848;25.958;2022-11-20T11:20:31;52.40;;;27.88;;
22334;SDS011;11335;43.848;25.958;2022-11-20T11:23:36;52.40;;;28.75;;
22334;SDS011;11335;43.848;25.958;2022-11-20T11:26:23;61.53;;;32.80;;
22334;SDS011;11335;43.848;25.958;2022-11-20T11:29:15;53.08;;;27.98;;
22334;SDS011;11335;43.848;25.958;2022-11-20T11:35:04;56.05;;;30.05;;
22334;SDS011;11335;43.848;25.958;2022-11-20T11:37:49;54.78;;;29.40;;
22334;SDS011;11335;43.848;25.958;2022-11-20T11:40:36;54.30;;;28.90;;
22334;SDS011;11335;43.848;25.958;2022-11-20T11:43:24;53.72;;;29.50;;
22334;SDS011;11335;43.848;25.958;2022-11-20T11:46:34;51.78;;;28.58;;
22334;SDS011;11335;43.848;25.958;2022-11-20T11:49:22;60.42;;;31.15;;
22334;SDS011;11335;43.848;25.958;2022-11-20T11:54:53;60.83;;;32.88;;
22334;SDS011;11335;43.848;25.958;2022-11-20T12:00:35;63.75;;;32.50;;
22334;SDS011;11335;43.848;25.958;2022-11-20T12:03:27;63.10;;;33.55;;
22334;SDS011;11335;43.848;25.958;2022-11-20T12:06:13;78.32;;;44.85;;
22334;SDS011;11335;43.848;25.958;2022-11-20T12:09:03;63.72;;;34.63;;
22334;SDS011;11335;43.848;25.958;2022-11-20T12:11:51;62.28;;;33.80;;
22334;SDS011;11335;43.848;25.958;2022-11-20T12:14:40;70.63;;;36.80;;
22334;SDS011;11335;43.848;25.958;2022-11-20T12:17:27;61.25;;;33.80;;
22334;SDS011;11335;43.848;25.958;2022-11-20T12:20:13;70.72;;;35.28;;
22334;SDS011;11335;43.848;25.958;2022-11-20T12:23:08;67.53;;;36.55;;
22334;SDS011;11335;43.848;25.958;2022-11-20T12:25:56;64.20;;;34.65;;
22334;SDS011;11335;43.848;25.958;2022-11-20T12:28:53;66.13;;;35.13;;
22334;SDS011;11335;43.848;25.958;2022-11-20T12:43:27;69.57;;;37.15;;
22334;SDS011;11335;43.848;25.958;2022-11-20T12:52:24;68.85;;;35.58;;
22334;SDS011;11335;43.848;25.958;2022-11-20T12:55:16;65.97;;;34.00;;
22334;SDS011;11335;43.848;25.958;2022-11-20T13:01:01;72.25;;;38.58;;
22334;SDS011;11335;43.848;25.958;2022-11-20T13:03:51;65.70;;;36.75;;
22334;SDS011;11335;43.848;25.958;2022-11-20T13:06:39;74.05;;;37.47;;
22334;SDS011;11335;43.848;25.958;2022-11-20T13:09:26;83.97;;;41.03;;
22334;SDS011;11335;43.848;25.958;2022-11-20T13:12:29;70.25;;;38.25;;
22334;SDS011;11335;43.848;25.958;2022-11-20T13:18:33;71.13;;;40.28;;
22334;SDS011;11335;43.848;25.958;2022-11-20T13:21:22;69.80;;;38.88;;
22334;SDS011;11335;43.848;25.958;2022-11-20T13:30:03;68.57;;;37.47;;
22334;SDS011;11335;43.848;25.958;2022-11-20T13:32:59;71.68;;;38.17;;
22334;SDS011;11335;43.848;25.958;2022-11-20T13:35:54;68.95;;;39.33;;
22334;SDS011;11335;43.848;25.958;2022-11-20T13:38:41;59.55;;;36.42;;
22334;SDS011;11335;43.848;25.958;2022-11-20T13:47:24;60.95;;;36.75;;
22334;SDS011;11335;43.848;25.958;2022-11-20T13:50:13;66.97;;;36.47;;
22334;SDS011;11335;43.848;25.958;2022-11-20T13:53:06;64.45;;;36.33;;
22334;SDS011;11335;43.848;25.958;2022-11-20T14:01:29;65.88;;;38.10;;
22334;SDS011;11335;43.848;25.958;2022-11-20T14:04:25;62.83;;;36.10;;
22334;SDS011;11335;43.848;25.958;2022-11-20T14:07:12;68.82;;;37.20;;
22334;SDS011;11335;43.848;25.958;2022-11-20T14:09:58;66.60;;;39.03;;
22334;SDS011;11335;43.848;25.958;2022-11-20T14:12:43;60.13;;;36.83;;
22334;SDS011;11335;43.848;25.958;2022-11-20T14:15:33;66.95;;;38.38;;
22334;SDS011;11335;43.848;25.958;2022-11-20T14:18:20;68.25;;;37.40;;
22334;SDS011;11335;43.848;25.958;2022-11-20T14:21:08;56.25;;;33.05;;
22334;SDS011;11335;43.848;25.958;2022-11-20T14:24:09;71.10;;;40.22;;
22334;SDS011;11335;43.848;25.958;2022-11-20T14:26:55;61.45;;;35.53;;
22334;SDS011;11335;43.848;25.958;2022-11-20T14:29:41;71.57;;;38.95;;
22334;SDS011;11335;43.848;25.958;2022-11-20T14:32:28;66.22;;;37.47;;
22334;SDS011;11335;43.848;25.958;2022-11-20T14:35:18;72.72;;;37.92;;
22334;SDS011;11335;43.848;25.958;2022-11-20T14:38:08;64.85;;;35.78;;
22334;SDS011;11335;43.848;25.958;2022-11-20T14:41:05;65.22;;;35.33;;
22334;SDS011;11335;43.848;25.958;2022-11-20T14:43:56;61.85;;;35.40;;
22334;SDS011;11335;43.848;25.958;2022-11-20T14:46:42;63.15;;;34.38;;
22334;SDS011;11335;43.848;25.958;2022-11-20T14:49:29;58.08;;;33.45;;
22334;SDS011;11335;43.848;25.958;2022-11-20T14:52:16;49.83;;;31.33;;
22334;SDS011;11335;43.848;25.958;2022-11-20T14:55:02;51.65;;;32.95;;
22334;SDS011;11335;43.848;25.958;2022-11-20T14:57:53;51.03;;;30.60;;
22334;SDS011;11335;43.848;25.958;2022-11-20T15:00:39;45.63;;;29.58;;
22334;SDS011;11335;43.848;25.958;2022-11-20T15:03:38;47.70;;;29.50;;
22334;SDS011;11335;43.848;25.958;2022-11-20T15:06:25;44.95;;;28.83;;
22334;SDS011;11335;43.848;25.958;2022-11-20T15:09:14;45.67;;;29.38;;
22334;SDS011;11335;43.848;25.958;2022-11-20T15:12:00;47.00;;;29.92;;
22334;SDS011;11335;43.848;25.958;2022-11-20T15:14:46;43.20;;;28.27;;
22334;SDS011;11335;43.848;25.958;2022-11-20T15:17:32;47.80;;;30.45;;
22334;SDS011;11335;43.848;25.958;2022-11-20T15:20:22;43.40;;;29.25;;
22334;SDS011;11335;43.848;25.958;2022-11-20T15:23:13;44.85;;;28.75;;
22334;SDS011;11335;43.848;25.958;2022-11-20T15:25:59;47.58;;;29.95;;
22334;SDS011;11335;43.848;25.958;2022-11-20T15:28:45;55.15;;;34.38;;
22334;SDS011;11335;43.848;25.958;2022-11-20T15:31:32;54.83;;;33.03;;
22334;SDS011;11335;43.848;25.958;2022-11-20T15:34:18;53.47;;;33.05;;
22334;SDS011;11335;43.848;25.958;2022-11-20T15:37:03;54.60;;;32.65;;
22334;SDS011;11335;43.848;25.958;2022-11-20T15:39:49;50.42;;;30.60;;
22334;SDS011;11335;43.848;25.958;2022-11-20T15:42:35;43.45;;;29.55;;
22334;SDS011;11335;43.848;25.958;2022-11-20T15:45:20;47.03;;;29.90;;
22334;SDS011;11335;43.848;25.958;2022-11-20T15:48:10;48.95;;;29.92;;
22334;SDS011;11335;43.848;25.958;2022-11-20T15:51:02;44.13;;;28.85;;
22334;SDS011;11335;43.848;25.958;2022-11-20T15:53:49;45.58;;;29.50;;
22334;SDS011;11335;43.848;25.958;2022-11-20T15:56:35;42.60;;;28.75;;
22334;SDS011;11335;43.848;25.958;2022-11-20T15:59:20;49.75;;;31.63;;
22334;SDS011;11335;43.848;25.958;2022-11-20T16:02:12;60.85;;;34.15;;
22334;SDS011;11335;43.848;25.958;2022-11-20T16:04:58;52.50;;;31.75;;
22334;SDS011;11335;43.848;25.958;2022-11-20T16:07:44;60.90;;;36.90;;
22334;SDS011;11335;43.848;25.958;2022-11-20T16:10:29;58.55;;;34.70;;
22334;SDS011;11335;43.848;25.958;2022-11-20T16:13:17;52.92;;;34.13;;
22334;SDS011;11335;43.848;25.958;2022-11-20T16:16:25;49.20;;;31.25;;
22334;SDS011;11335;43.848;25.958;2022-11-20T16:19:14;52.13;;;32.78;;
22334;SDS011;11335;43.848;25.958;2022-11-20T16:22:00;52.10;;;33.72;;
22334;SDS011;11335;43.848;25.958;2022-11-20T16:24:46;57.75;;;37.63;;
22334;SDS011;11335;43.848;25.958;2022-11-20T16:27:32;53.63;;;35.13;;
22334;SDS011;11335;43.848;25.958;2022-11-20T16:30:18;47.88;;;32.70;;
22334;SDS011;11335;43.848;25.958;2022-11-20T16:33:03;48.40;;;31.15;;
22334;SDS011;11335;43.848;25.958;2022-11-20T16:35:49;52.30;;;34.15;;
22334;SDS011;11335;43.848;25.958;2022-11-20T16:38:34;43.33;;;28.40;;
22334;SDS011;11335;43.848;25.958;2022-11-20T16:41:21;41.10;;;28.55;;
22334;SDS011;11335;43.848;25.958;2022-11-20T16:44:08;41.35;;;26.83;;
22334;SDS011;11335;43.848;25.958;2022-11-20T16:46:54;35.78;;;24.58;;
22334;SDS011;11335;43.848;25.958;2022-11-20T16:49:40;36.53;;;24.73;;
22334;SDS011;11335;43.848;25.958;2022-11-20T16:52:25;31.95;;;23.20;;
22334;SDS011;11335;43.848;25.958;2022-11-20T16:55:11;32.33;;;23.38;;
22334;SDS011;11335;43.848;25.958;2022-11-20T16:57:57;35.67;;;23.98;;
22334;SDS011;11335;43.848;25.958;2022-11-20T17:00:42;33.88;;;24.27;;
22334;SDS011;11335;43.848;25.958;2022-11-20T17:03:28;32.20;;;24.55;;
22334;SDS011;11335;43.848;25.958;2022-11-20T17:06:15;34.67;;;25.08;;
22334;SDS011;11335;43.848;25.958;2022-11-20T17:09:01;41.15;;;28.65;;
22334;SDS011;11335;43.848;25.958;2022-11-20T17:11:47;44.15;;;31.90;;
22334;SDS011;11335;43.848;25.958;2022-11-20T17:14:33;53.67;;;34.67;;
22334;SDS011;11335;43.848;25.958;2022-11-20T17:17:18;44.70;;;28.77;;
22334;SDS011;11335;43.848;25.958;2022-11-20T17:20:04;37.47;;;24.60;;
22334;SDS011;11335;43.848;25.958;2022-11-20T17:22:50;38.78;;;25.50;;
22334;SDS011;11335;43.848;25.958;2022-11-20T17:25:35;41.35;;;25.35;;
22334;SDS011;11335;43.848;25.958;2022-11-20T17:28:21;34.17;;;21.92;;
22334;SDS011;11335;43.848;25.958;2022-11-20T17:31:07;37.42;;;23.27;;
22334;SDS011;11335;43.848;25.958;2022-11-20T17:33:53;38.50;;;24.33;;
22334;SDS011;11335;43.848;25.958;2022-11-20T17:36:39;37.92;;;24.67;;